sensor_id;sensor_type;location;lat;lon;timestamp;P1;durP1;ratioP1;P2;durP2;ratioP2
71312;SDS011;59104;44.738;20.612;2022-07-03T00:01:50;1.33;;;0.77;;
71312;SDS011;59104;44.738;20.612;2022-07-03T00:04:15;2.58;;;1.70;;
71312;SDS011;59104;44.738;20.612;2022-07-03T00:06:43;3.03;;;1.50;;
71312;SDS011;59104;44.738;20.612;2022-07-03T00:09:09;1.45;;;1.20;;
71312;SDS011;59104;44.738;20.612;2022-07-03T00:11:34;1.40;;;1.27;;
71312;SDS011;59104;44.738;20.612;2022-07-03T00:14:00;1.75;;;1.20;;
71312;SDS011;59104;44.738;20.612;2022-07-03T00:16:26;1.88;;;1.20;;
71312;SDS011;59104;44.738;20.612;2022-07-03T00:18:52;1.42;;;1.02;;
71312;SDS011;59104;44.738;20.612;2022-07-03T00:21:23;1.38;;;1.13;;
71312;SDS011;59104;44.738;20.612;2022-07-03T00:23:57;1.42;;;1.10;;
71312;SDS011;59104;44.738;20.612;2022-07-03T00:26:29;1.58;;;1.38;;
71312;SDS011;59104;44.738;20.612;2022-07-03T00:28:58;1.58;;;1.23;;
71312;SDS011;59104;44.738;20.612;2022-07-03T00:31:28;1.58;;;1.20;;
71312;SDS011;59104;44.738;20.612;2022-07-03T00:33:56;2.50;;;1.40;;
71312;SDS011;59104;44.738;20.612;2022-07-03T00:36:25;2.28;;;1.60;;
71312;SDS011;59104;44.738;20.612;2022-07-03T00:38:54;3.25;;;1.30;;
71312;SDS011;59104;44.738;20.612;2022-07-03T00:41:57;1.45;;;1.20;;
71312;SDS011;59104;44.738;20.612;2022-07-03T00:44:12;1.95;;;1.30;;
71312;SDS011;59104;44.738;20.612;2022-07-03T00:46:38;2.45;;;1.75;;
71312;SDS011;59104;44.738;20.612;2022-07-03T00:49:06;3.05;;;1.30;;
71312;SDS011;59104;44.738;20.612;2022-07-03T00:51:33;2.22;;;1.50;;
71312;SDS011;59104;44.738;20.612;2022-07-03T00:54:02;1.85;;;1.50;;
71312;SDS011;59104;44.738;20.612;2022-07-03T00:56:29;1.60;;;1.40;;
71312;SDS011;59104;44.738;20.612;2022-07-03T00:58:56;1.83;;;1.38;;
71312;SDS011;59104;44.738;20.612;2022-07-03T01:01:26;2.28;;;1.17;;
71312;SDS011;59104;44.738;20.612;2022-07-03T01:04:01;1.60;;;1.13;;
71312;SDS011;59104;44.738;20.612;2022-07-03T01:06:52;1.52;;;1.20;;
71312;SDS011;59104;44.738;20.612;2022-07-03T01:09:34;1.20;;;1.10;;
71312;SDS011;59104;44.738;20.612;2022-07-03T01:12:16;1.10;;;0.98;;
71312;SDS011;59104;44.738;20.612;2022-07-03T01:20:00;1.20;;;1.10;;
71312;SDS011;59104;44.738;20.612;2022-07-03T01:30:33;1.77;;;1.20;;
71312;SDS011;59104;44.738;20.612;2022-07-03T01:33:06;1.20;;;1.05;;
71312;SDS011;59104;44.738;20.612;2022-07-03T01:35:33;2.38;;;1.67;;
71312;SDS011;59104;44.738;20.612;2022-07-03T01:38:03;1.30;;;1.10;;
71312;SDS011;59104;44.738;20.612;2022-07-03T01:40:31;1.50;;;1.20;;
71312;SDS011;59104;44.738;20.612;2022-07-03T01:42:58;1.20;;;1.10;;
71312;SDS011;59104;44.738;20.612;2022-07-03T01:45:26;1.30;;;1.00;;
71312;SDS011;59104;44.738;20.612;2022-07-03T01:47:53;2.40;;;1.90;;
71312;SDS011;59104;44.738;20.612;2022-07-03T01:50:23;1.23;;;1.00;;
71312;SDS011;59104;44.738;20.612;2022-07-03T01:52:51;1.33;;;0.90;;
71312;SDS011;59104;44.738;20.612;2022-07-03T01:55:18;1.13;;;0.93;;
71312;SDS011;59104;44.738;20.612;2022-07-03T01:57:46;1.05;;;0.82;;
71312;SDS011;59104;44.738;20.612;2022-07-03T02:00:21;1.42;;;0.98;;
71312;SDS011;59104;44.738;20.612;2022-07-03T02:02:56;1.75;;;1.10;;
71312;SDS011;59104;44.738;20.612;2022-07-03T02:05:33;1.17;;;1.00;;
71312;SDS011;59104;44.738;20.612;2022-07-03T02:08:15;1.80;;;1.00;;
71312;SDS011;59104;44.738;20.612;2022-07-03T02:11:13;0.70;;;0.70;;
71312;SDS011;59104;44.738;20.612;2022-07-03T02:13:50;1.13;;;0.90;;
71312;SDS011;59104;44.738;20.612;2022-07-03T02:16:25;1.48;;;0.90;;
71312;SDS011;59104;44.738;20.612;2022-07-03T02:18:56;1.08;;;0.68;;
71312;SDS011;59104;44.738;20.612;2022-07-03T02:21:23;0.80;;;0.80;;
71312;SDS011;59104;44.738;20.612;2022-07-03T02:26:46;1.05;;;0.75;;
71312;SDS011;59104;44.738;20.612;2022-07-03T02:29:30;0.88;;;0.88;;
71312;SDS011;59104;44.738;20.612;2022-07-03T02:32:00;0.80;;;0.80;;
71312;SDS011;59104;44.738;20.612;2022-07-03T02:34:30;1.70;;;0.98;;
71312;SDS011;59104;44.738;20.612;2022-07-03T02:36:59;1.45;;;0.90;;
71312;SDS011;59104;44.738;20.612;2022-07-03T02:39:35;1.38;;;1.10;;
71312;SDS011;59104;44.738;20.612;2022-07-03T02:42:12;1.83;;;1.10;;
71312;SDS011;59104;44.738;20.612;2022-07-03T02:44:50;1.10;;;1.00;;
71312;SDS011;59104;44.738;20.612;2022-07-03T02:50:06;1.50;;;1.20;;
71312;SDS011;59104;44.738;20.612;2022-07-03T02:58:12;1.45;;;1.10;;
71312;SDS011;59104;44.738;20.612;2022-07-03T03:00:45;1.85;;;1.20;;
71312;SDS011;59104;44.738;20.612;2022-07-03T03:03:23;1.50;;;1.25;;
71312;SDS011;59104;44.738;20.612;2022-07-03T03:05:52;1.92;;;1.42;;
71312;SDS011;59104;44.738;20.612;2022-07-03T03:11:01;1.95;;;1.50;;
71312;SDS011;59104;44.738;20.612;2022-07-03T03:13:32;1.90;;;1.55;;
71312;SDS011;59104;44.738;20.612;2022-07-03T03:16:00;1.60;;;1.33;;
71312;SDS011;59104;44.738;20.612;2022-07-03T03:18:33;4.43;;;1.73;;
71312;SDS011;59104;44.738;20.612;2022-07-03T03:21:02;2.33;;;1.33;;
71312;SDS011;59104;44.738;20.612;2022-07-03T03:26:03;2.47;;;2.00;;
71312;SDS011;59104;44.738;20.612;2022-07-03T03:28:29;2.00;;;1.42;;
71312;SDS011;59104;44.738;20.612;2022-07-03T03:30:55;3.65;;;1.40;;
71312;SDS011;59104;44.738;20.612;2022-07-03T03:33:21;5.30;;;1.90;;
71312;SDS011;59104;44.738;20.612;2022-07-03T03:35:48;2.25;;;1.35;;
71312;SDS011;59104;44.738;20.612;2022-07-03T03:38:13;1.80;;;1.63;;
71312;SDS011;59104;44.738;20.612;2022-07-03T03:40:40;1.70;;;1.50;;
71312;SDS011;59104;44.738;20.612;2022-07-03T03:43:06;2.03;;;1.58;;
71312;SDS011;59104;44.738;20.612;2022-07-03T03:45:32;2.60;;;1.35;;
71312;SDS011;59104;44.738;20.612;2022-07-03T03:47:57;1.20;;;1.10;;
71312;SDS011;59104;44.738;20.612;2022-07-03T03:50:23;1.13;;;1.02;;
71312;SDS011;59104;44.738;20.612;2022-07-03T03:52:49;2.88;;;1.10;;
71312;SDS011;59104;44.738;20.612;2022-07-03T03:55:15;1.58;;;1.20;;
71312;SDS011;59104;44.738;20.612;2022-07-03T03:57:40;2.00;;;1.42;;
71312;SDS011;59104;44.738;20.612;2022-07-03T04:00:06;1.83;;;1.30;;
71312;SDS011;59104;44.738;20.612;2022-07-03T04:02:37;2.30;;;1.50;;
71312;SDS011;59104;44.738;20.612;2022-07-03T04:05:04;1.25;;;1.15;;
71312;SDS011;59104;44.738;20.612;2022-07-03T04:07:30;1.63;;;1.30;;
71312;SDS011;59104;44.738;20.612;2022-07-03T04:09:55;1.60;;;1.15;;
71312;SDS011;59104;44.738;20.612;2022-07-03T04:12:21;1.85;;;1.30;;
71312;SDS011;59104;44.738;20.612;2022-07-03T04:14:47;2.10;;;1.40;;
71312;SDS011;59104;44.738;20.612;2022-07-03T04:17:12;1.58;;;1.10;;
71312;SDS011;59104;44.738;20.612;2022-07-03T04:19:38;1.75;;;1.30;;
71312;SDS011;59104;44.738;20.612;2022-07-03T04:22:04;1.70;;;1.20;;
71312;SDS011;59104;44.738;20.612;2022-07-03T04:24:34;1.70;;;1.50;;
71312;SDS011;59104;44.738;20.612;2022-07-03T04:27:00;1.10;;;1.00;;
71312;SDS011;59104;44.738;20.612;2022-07-03T04:29:26;2.03;;;1.60;;
71312;SDS011;59104;44.738;20.612;2022-07-03T04:31:52;2.70;;;1.40;;
71312;SDS011;59104;44.738;20.612;2022-07-03T04:34:18;3.13;;;1.60;;
71312;SDS011;59104;44.738;20.612;2022-07-03T04:36:43;1.73;;;1.40;;
71312;SDS011;59104;44.738;20.612;2022-07-03T04:39:09;2.25;;;1.88;;
71312;SDS011;59104;44.738;20.612;2022-07-03T04:41:34;3.08;;;1.92;;
71312;SDS011;59104;44.738;20.612;2022-07-03T04:44:00;1.70;;;1.60;;
71312;SDS011;59104;44.738;20.612;2022-07-03T04:46:25;2.03;;;1.58;;
71312;SDS011;59104;44.738;20.612;2022-07-03T04:48:51;2.13;;;1.58;;
71312;SDS011;59104;44.738;20.612;2022-07-03T04:51:16;1.88;;;1.48;;
71312;SDS011;59104;44.738;20.612;2022-07-03T04:53:42;1.85;;;1.58;;
71312;SDS011;59104;44.738;20.612;2022-07-03T04:56:07;2.30;;;1.48;;
71312;SDS011;59104;44.738;20.612;2022-07-03T04:58:33;3.40;;;2.10;;
71312;SDS011;59104;44.738;20.612;2022-07-03T05:00:58;3.58;;;1.95;;
71312;SDS011;59104;44.738;20.612;2022-07-03T05:03:24;2.80;;;2.20;;
71312;SDS011;59104;44.738;20.612;2022-07-03T05:05:50;2.67;;;2.13;;
71312;SDS011;59104;44.738;20.612;2022-07-03T05:08:17;6.40;;;3.35;;
71312;SDS011;59104;44.738;20.612;2022-07-03T05:10:45;5.95;;;3.25;;
71312;SDS011;59104;44.738;20.612;2022-07-03T05:13:11;6.28;;;3.45;;
71312;SDS011;59104;44.738;20.612;2022-07-03T05:15:36;3.63;;;2.78;;
71312;SDS011;59104;44.738;20.612;2022-07-03T05:18:02;3.97;;;3.20;;
71312;SDS011;59104;44.738;20.612;2022-07-03T05:20:28;4.85;;;3.08;;
71312;SDS011;59104;44.738;20.612;2022-07-03T05:22:54;3.95;;;2.92;;
71312;SDS011;59104;44.738;20.612;2022-07-03T05:25:21;4.20;;;3.15;;
71312;SDS011;59104;44.738;20.612;2022-07-03T05:27:47;3.72;;;3.05;;
71312;SDS011;59104;44.738;20.612;2022-07-03T05:30:12;3.75;;;2.85;;
71312;SDS011;59104;44.738;20.612;2022-07-03T05:32:38;3.90;;;2.70;;
71312;SDS011;59104;44.738;20.612;2022-07-03T05:35:04;8.85;;;3.70;;
71312;SDS011;59104;44.738;20.612;2022-07-03T05:37:30;5.35;;;3.17;;
71312;SDS011;59104;44.738;20.612;2022-07-03T05:39:56;3.65;;;2.80;;
71312;SDS011;59104;44.738;20.612;2022-07-03T05:42:21;3.13;;;2.53;;
71312;SDS011;59104;44.738;20.612;2022-07-03T05:44:47;3.17;;;2.67;;
71312;SDS011;59104;44.738;20.612;2022-07-03T05:47:13;3.63;;;2.45;;
71312;SDS011;59104;44.738;20.612;2022-07-03T05:49:39;2.42;;;2.03;;
71312;SDS011;59104;44.738;20.612;2022-07-03T05:52:04;3.13;;;2.25;;
71312;SDS011;59104;44.738;20.612;2022-07-03T05:54:30;3.03;;;2.40;;
71312;SDS011;59104;44.738;20.612;2022-07-03T05:56:56;3.40;;;2.70;;
71312;SDS011;59104;44.738;20.612;2022-07-03T05:59:21;2.80;;;2.25;;
71312;SDS011;59104;44.738;20.612;2022-07-03T06:01:47;2.83;;;2.10;;
71312;SDS011;59104;44.738;20.612;2022-07-03T06:04:12;3.65;;;2.33;;
71312;SDS011;59104;44.738;20.612;2022-07-03T06:06:38;2.28;;;1.92;;
71312;SDS011;59104;44.738;20.612;2022-07-03T06:09:04;3.72;;;1.98;;
71312;SDS011;59104;44.738;20.612;2022-07-03T06:11:29;4.43;;;2.75;;
71312;SDS011;59104;44.738;20.612;2022-07-03T06:13:55;4.30;;;2.50;;
71312;SDS011;59104;44.738;20.612;2022-07-03T06:16:21;2.67;;;1.95;;
71312;SDS011;59104;44.738;20.612;2022-07-03T06:18:47;3.33;;;2.53;;
71312;SDS011;59104;44.738;20.612;2022-07-03T06:21:13;3.25;;;2.55;;
71312;SDS011;59104;44.738;20.612;2022-07-03T06:23:38;4.55;;;3.03;;
71312;SDS011;59104;44.738;20.612;2022-07-03T06:26:04;4.90;;;2.83;;
71312;SDS011;59104;44.738;20.612;2022-07-03T06:28:30;5.43;;;3.28;;
71312;SDS011;59104;44.738;20.612;2022-07-03T06:30:56;3.85;;;3.03;;
71312;SDS011;59104;44.738;20.612;2022-07-03T06:33:21;3.78;;;3.05;;
71312;SDS011;59104;44.738;20.612;2022-07-03T06:35:48;4.50;;;2.90;;
71312;SDS011;59104;44.738;20.612;2022-07-03T06:38:13;4.43;;;3.00;;
71312;SDS011;59104;44.738;20.612;2022-07-03T06:40:39;4.15;;;2.80;;
71312;SDS011;59104;44.738;20.612;2022-07-03T06:43:04;5.40;;;3.35;;
71312;SDS011;59104;44.738;20.612;2022-07-03T06:45:30;4.57;;;3.45;;
71312;SDS011;59104;44.738;20.612;2022-07-03T06:47:56;4.50;;;3.33;;
71312;SDS011;59104;44.738;20.612;2022-07-03T06:50:21;5.13;;;2.88;;
71312;SDS011;59104;44.738;20.612;2022-07-03T06:52:47;5.45;;;3.15;;
71312;SDS011;59104;44.738;20.612;2022-07-03T06:55:13;3.20;;;2.90;;
71312;SDS011;59104;44.738;20.612;2022-07-03T06:57:39;2.85;;;2.47;;
71312;SDS011;59104;44.738;20.612;2022-07-03T07:00:05;3.05;;;2.47;;
71312;SDS011;59104;44.738;20.612;2022-07-03T07:02:31;3.28;;;2.63;;
71312;SDS011;59104;44.738;20.612;2022-07-03T07:04:58;2.55;;;2.35;;
71312;SDS011;59104;44.738;20.612;2022-07-03T07:07:23;5.40;;;3.00;;
71312;SDS011;59104;44.738;20.612;2022-07-03T07:09:49;2.92;;;2.38;;
71312;SDS011;59104;44.738;20.612;2022-07-03T07:12:15;3.70;;;2.88;;
71312;SDS011;59104;44.738;20.612;2022-07-03T07:14:40;3.05;;;2.38;;
71312;SDS011;59104;44.738;20.612;2022-07-03T07:17:06;2.72;;;2.30;;
71312;SDS011;59104;44.738;20.612;2022-07-03T07:19:32;3.72;;;2.33;;
71312;SDS011;59104;44.738;20.612;2022-07-03T07:21:58;2.78;;;2.35;;
71312;SDS011;59104;44.738;20.612;2022-07-03T07:24:29;3.70;;;2.42;;
71312;SDS011;59104;44.738;20.612;2022-07-03T07:26:55;3.08;;;2.47;;
71312;SDS011;59104;44.738;20.612;2022-07-03T07:29:21;3.08;;;2.55;;
71312;SDS011;59104;44.738;20.612;2022-07-03T07:31:46;2.88;;;2.40;;
71312;SDS011;59104;44.738;20.612;2022-07-03T07:34:12;2.03;;;1.70;;
71312;SDS011;59104;44.738;20.612;2022-07-03T07:36:38;2.45;;;2.10;;
71312;SDS011;59104;44.738;20.612;2022-07-03T07:39:05;4.93;;;2.60;;
71312;SDS011;59104;44.738;20.612;2022-07-03T07:41:30;5.13;;;3.15;;
71312;SDS011;59104;44.738;20.612;2022-07-03T07:43:56;4.50;;;2.72;;
71312;SDS011;59104;44.738;20.612;2022-07-03T07:46:22;5.82;;;2.97;;
71312;SDS011;59104;44.738;20.612;2022-07-03T07:48:51;4.65;;;3.03;;
71312;SDS011;59104;44.738;20.612;2022-07-03T07:51:19;3.00;;;2.60;;
71312;SDS011;59104;44.738;20.612;2022-07-03T07:53:44;2.55;;;2.35;;
71312;SDS011;59104;44.738;20.612;2022-07-03T07:56:10;4.07;;;3.20;;
71312;SDS011;59104;44.738;20.612;2022-07-03T07:58:36;3.13;;;2.50;;
71312;SDS011;59104;44.738;20.612;2022-07-03T08:01:02;5.00;;;2.88;;
71312;SDS011;59104;44.738;20.612;2022-07-03T08:03:46;3.38;;;2.47;;
71312;SDS011;59104;44.738;20.612;2022-07-03T08:06:30;2.35;;;2.03;;
71312;SDS011;59104;44.738;20.612;2022-07-03T08:08:56;4.20;;;2.85;;
71312;SDS011;59104;44.738;20.612;2022-07-03T08:11:22;3.38;;;3.08;;
71312;SDS011;59104;44.738;20.612;2022-07-03T08:13:47;3.33;;;3.00;;
71312;SDS011;59104;44.738;20.612;2022-07-03T08:16:13;3.60;;;2.42;;
71312;SDS011;59104;44.738;20.612;2022-07-03T08:18:39;3.50;;;2.40;;
71312;SDS011;59104;44.738;20.612;2022-07-03T08:21:05;2.75;;;2.50;;
71312;SDS011;59104;44.738;20.612;2022-07-03T08:23:30;2.83;;;2.53;;
71312;SDS011;59104;44.738;20.612;2022-07-03T08:25:56;3.10;;;2.20;;
71312;SDS011;59104;44.738;20.612;2022-07-03T08:28:22;3.40;;;2.75;;
71312;SDS011;59104;44.738;20.612;2022-07-03T08:30:48;5.13;;;2.70;;
71312;SDS011;59104;44.738;20.612;2022-07-03T08:33:13;7.13;;;3.72;;
71312;SDS011;59104;44.738;20.612;2022-07-03T08:35:39;4.57;;;3.40;;
71312;SDS011;59104;44.738;20.612;2022-07-03T08:38:05;4.03;;;3.00;;
71312;SDS011;59104;44.738;20.612;2022-07-03T08:40:31;3.35;;;2.67;;
71312;SDS011;59104;44.738;20.612;2022-07-03T08:42:57;3.17;;;2.60;;
71312;SDS011;59104;44.738;20.612;2022-07-03T08:45:26;4.05;;;2.67;;
71312;SDS011;59104;44.738;20.612;2022-07-03T08:47:53;2.67;;;2.47;;
71312;SDS011;59104;44.738;20.612;2022-07-03T08:50:20;2.72;;;2.30;;
71312;SDS011;59104;44.738;20.612;2022-07-03T08:52:46;3.47;;;2.63;;
71312;SDS011;59104;44.738;20.612;2022-07-03T08:55:13;3.72;;;3.10;;
71312;SDS011;59104;44.738;20.612;2022-07-03T08:57:43;3.00;;;2.40;;
71312;SDS011;59104;44.738;20.612;2022-07-03T09:00:11;3.28;;;2.63;;
71312;SDS011;59104;44.738;20.612;2022-07-03T09:02:46;3.78;;;2.40;;
71312;SDS011;59104;44.738;20.612;2022-07-03T09:05:14;3.78;;;2.63;;
71312;SDS011;59104;44.738;20.612;2022-07-03T09:07:42;3.08;;;2.25;;
71312;SDS011;59104;44.738;20.612;2022-07-03T09:10:10;3.22;;;2.72;;
71312;SDS011;59104;44.738;20.612;2022-07-03T09:12:36;4.07;;;2.88;;
71312;SDS011;59104;44.738;20.612;2022-07-03T09:15:03;2.80;;;2.50;;
71312;SDS011;59104;44.738;20.612;2022-07-03T09:17:30;4.75;;;3.17;;
71312;SDS011;59104;44.738;20.612;2022-07-03T09:20:03;4.13;;;3.20;;
71312;SDS011;59104;44.738;20.612;2022-07-03T09:22:32;3.33;;;3.00;;
71312;SDS011;59104;44.738;20.612;2022-07-03T09:29:59;4.10;;;3.17;;
71312;SDS011;59104;44.738;20.612;2022-07-03T09:35:19;4.13;;;3.17;;
71312;SDS011;59104;44.738;20.612;2022-07-03T09:37:54;6.28;;;3.58;;
71312;SDS011;59104;44.738;20.612;2022-07-03T09:40:21;9.05;;;3.83;;
71312;SDS011;59104;44.738;20.612;2022-07-03T09:43:07;7.70;;;4.80;;
71312;SDS011;59104;44.738;20.612;2022-07-03T09:45:53;5.22;;;3.30;;
71312;SDS011;59104;44.738;20.612;2022-07-03T09:48:30;7.95;;;3.95;;
71312;SDS011;59104;44.738;20.612;2022-07-03T09:53:56;5.68;;;3.50;;
71312;SDS011;59104;44.738;20.612;2022-07-03T09:56:27;6.22;;;4.07;;
71312;SDS011;59104;44.738;20.612;2022-07-03T10:01:52;4.40;;;3.58;;
71312;SDS011;59104;44.738;20.612;2022-07-03T10:04:22;4.40;;;3.63;;
71312;SDS011;59104;44.738;20.612;2022-07-03T10:09:16;6.68;;;3.72;;
71312;SDS011;59104;44.738;20.612;2022-07-03T10:11:43;5.43;;;4.00;;
71312;SDS011;59104;44.738;20.612;2022-07-03T10:14:13;7.63;;;4.07;;
71312;SDS011;59104;44.738;20.612;2022-07-03T10:16:40;5.50;;;4.28;;
71312;SDS011;59104;44.738;20.612;2022-07-03T10:19:07;5.82;;;3.65;;
71312;SDS011;59104;44.738;20.612;2022-07-03T10:21:38;4.72;;;3.60;;
71312;SDS011;59104;44.738;20.612;2022-07-03T10:24:04;5.85;;;4.30;;
71312;SDS011;59104;44.738;20.612;2022-07-03T10:26:31;5.10;;;4.13;;
71312;SDS011;59104;44.738;20.612;2022-07-03T10:28:57;6.63;;;4.10;;
71312;SDS011;59104;44.738;20.612;2022-07-03T10:31:25;5.80;;;4.38;;
71312;SDS011;59104;44.738;20.612;2022-07-03T10:33:52;4.90;;;4.07;;
71312;SDS011;59104;44.738;20.612;2022-07-03T10:36:19;4.10;;;3.67;;
71312;SDS011;59104;44.738;20.612;2022-07-03T10:38:47;5.38;;;4.22;;
71312;SDS011;59104;44.738;20.612;2022-07-03T10:44:25;4.68;;;4.07;;
71312;SDS011;59104;44.738;20.612;2022-07-03T10:50:00;5.80;;;4.53;;
71312;SDS011;59104;44.738;20.612;2022-07-03T10:52:28;5.10;;;4.03;;
71312;SDS011;59104;44.738;20.612;2022-07-03T10:54:54;5.78;;;4.43;;
71312;SDS011;59104;44.738;20.612;2022-07-03T10:57:22;6.55;;;4.55;;
71312;SDS011;59104;44.738;20.612;2022-07-03T11:02:23;7.95;;;5.18;;
71312;SDS011;59104;44.738;20.612;2022-07-03T11:12:56;7.65;;;5.00;;
71312;SDS011;59104;44.738;20.612;2022-07-03T11:23:17;7.43;;;5.05;;
71312;SDS011;59104;44.738;20.612;2022-07-03T11:25:57;7.40;;;5.32;;
71312;SDS011;59104;44.738;20.612;2022-07-03T11:36:10;6.03;;;4.82;;
71312;SDS011;59104;44.738;20.612;2022-07-03T11:41:25;6.57;;;5.38;;
71312;SDS011;59104;44.738;20.612;2022-07-03T11:46:18;8.75;;;5.35;;
71312;SDS011;59104;44.738;20.612;2022-07-03T11:48:46;9.23;;;5.60;;
71312;SDS011;59104;44.738;20.612;2022-07-03T11:51:11;8.77;;;5.28;;
71312;SDS011;59104;44.738;20.612;2022-07-03T11:53:37;9.07;;;5.15;;
71312;SDS011;59104;44.738;20.612;2022-07-03T11:56:11;6.90;;;5.30;;
71312;SDS011;59104;44.738;20.612;2022-07-03T12:01:10;5.88;;;4.70;;
71312;SDS011;59104;44.738;20.612;2022-07-03T12:06:33;6.43;;;5.43;;
71312;SDS011;59104;44.738;20.612;2022-07-03T12:09:20;6.15;;;5.22;;
71312;SDS011;59104;44.738;20.612;2022-07-03T12:12:06;6.72;;;4.63;;
71312;SDS011;59104;44.738;20.612;2022-07-03T12:14:40;9.18;;;4.95;;
71312;SDS011;59104;44.738;20.612;2022-07-03T12:17:20;10.27;;;5.57;;
71312;SDS011;59104;44.738;20.612;2022-07-03T12:19:48;5.47;;;4.97;;
71312;SDS011;59104;44.738;20.612;2022-07-03T12:22:36;5.85;;;4.40;;
71312;SDS011;59104;44.738;20.612;2022-07-03T12:25:05;5.68;;;4.88;;
71312;SDS011;59104;44.738;20.612;2022-07-03T12:27:33;6.05;;;4.53;;
71312;SDS011;59104;44.738;20.612;2022-07-03T12:30:00;5.32;;;4.82;;
71312;SDS011;59104;44.738;20.612;2022-07-03T12:32:26;7.55;;;5.45;;
71312;SDS011;59104;44.738;20.612;2022-07-03T12:34:52;7.55;;;4.68;;
71312;SDS011;59104;44.738;20.612;2022-07-03T12:37:30;7.47;;;4.90;;
71312;SDS011;59104;44.738;20.612;2022-07-03T12:40:00;4.82;;;4.38;;
71312;SDS011;59104;44.738;20.612;2022-07-03T12:42:26;6.13;;;4.70;;
71312;SDS011;59104;44.738;20.612;2022-07-03T12:44:59;6.03;;;4.70;;
71312;SDS011;59104;44.738;20.612;2022-07-03T12:47:29;4.88;;;4.47;;
71312;SDS011;59104;44.738;20.612;2022-07-03T12:49:59;6.97;;;4.50;;
71312;SDS011;59104;44.738;20.612;2022-07-03T12:52:28;5.18;;;4.68;;
71312;SDS011;59104;44.738;20.612;2022-07-03T12:54:55;5.93;;;4.40;;
71312;SDS011;59104;44.738;20.612;2022-07-03T12:57:24;4.60;;;4.18;;
71312;SDS011;59104;44.738;20.612;2022-07-03T13:00:18;5.95;;;4.13;;
71312;SDS011;59104;44.738;20.612;2022-07-03T13:02:45;7.25;;;4.80;;
71312;SDS011;59104;44.738;20.612;2022-07-03T13:05:15;7.53;;;4.50;;
71312;SDS011;59104;44.738;20.612;2022-07-03T13:07:47;5.72;;;4.55;;
71312;SDS011;59104;44.738;20.612;2022-07-03T13:10:14;4.20;;;3.70;;
71312;SDS011;59104;44.738;20.612;2022-07-03T13:12:53;3.92;;;3.58;;
71312;SDS011;59104;44.738;20.612;2022-07-03T13:15:24;6.13;;;4.65;;
71312;SDS011;59104;44.738;20.612;2022-07-03T13:20:18;4.38;;;3.40;;
71312;SDS011;59104;44.738;20.612;2022-07-03T13:22:48;6.45;;;3.92;;
71312;SDS011;59104;44.738;20.612;2022-07-03T13:25:14;3.30;;;3.00;;
71312;SDS011;59104;44.738;20.612;2022-07-03T13:27:40;4.25;;;3.42;;
71312;SDS011;59104;44.738;20.612;2022-07-03T13:30:08;7.05;;;4.10;;
71312;SDS011;59104;44.738;20.612;2022-07-03T13:32:35;3.80;;;3.40;;
71312;SDS011;59104;44.738;20.612;2022-07-03T13:35:01;5.07;;;3.50;;
71312;SDS011;59104;44.738;20.612;2022-07-03T13:37:26;6.15;;;4.30;;
71312;SDS011;59104;44.738;20.612;2022-07-03T13:39:52;4.60;;;4.13;;
71312;SDS011;59104;44.738;20.612;2022-07-03T13:42:18;5.05;;;3.85;;
71312;SDS011;59104;44.738;20.612;2022-07-03T13:44:44;4.95;;;3.40;;
71312;SDS011;59104;44.738;20.612;2022-07-03T13:47:10;5.80;;;4.00;;
71312;SDS011;59104;44.738;20.612;2022-07-03T13:49:35;7.72;;;3.90;;
71312;SDS011;59104;44.738;20.612;2022-07-03T13:52:01;4.70;;;3.42;;
71312;SDS011;59104;44.738;20.612;2022-07-03T13:54:27;5.95;;;3.47;;
71312;SDS011;59104;44.738;20.612;2022-07-03T13:56:53;3.53;;;3.22;;
71312;SDS011;59104;44.738;20.612;2022-07-03T13:59:18;6.15;;;3.60;;
71312;SDS011;59104;44.738;20.612;2022-07-03T14:01:44;3.45;;;3.25;;
71312;SDS011;59104;44.738;20.612;2022-07-03T14:04:10;3.95;;;3.40;;
71312;SDS011;59104;44.738;20.612;2022-07-03T14:06:36;4.97;;;3.50;;
71312;SDS011;59104;44.738;20.612;2022-07-03T14:09:02;3.30;;;3.10;;
71312;SDS011;59104;44.738;20.612;2022-07-03T14:11:28;11.30;;;3.03;;
71312;SDS011;59104;44.738;20.612;2022-07-03T14:13:53;6.95;;;3.65;;
71312;SDS011;59104;44.738;20.612;2022-07-03T14:16:19;4.20;;;3.20;;
71312;SDS011;59104;44.738;20.612;2022-07-03T14:18:45;4.95;;;3.33;;
71312;SDS011;59104;44.738;20.612;2022-07-03T14:21:11;3.17;;;2.90;;
71312;SDS011;59104;44.738;20.612;2022-07-03T14:23:36;3.63;;;3.33;;
71312;SDS011;59104;44.738;20.612;2022-07-03T14:26:02;3.53;;;3.30;;
71312;SDS011;59104;44.738;20.612;2022-07-03T14:28:28;3.20;;;2.92;;
71312;SDS011;59104;44.738;20.612;2022-07-03T14:31:12;6.50;;;3.22;;
71312;SDS011;59104;44.738;20.612;2022-07-03T14:33:51;3.75;;;3.40;;
71312;SDS011;59104;44.738;20.612;2022-07-03T14:36:17;3.30;;;3.10;;
71312;SDS011;59104;44.738;20.612;2022-07-03T14:38:43;3.70;;;3.40;;
71312;SDS011;59104;44.738;20.612;2022-07-03T14:41:09;3.22;;;3.00;;
71312;SDS011;59104;44.738;20.612;2022-07-03T14:43:35;3.60;;;3.35;;
71312;SDS011;59104;44.738;20.612;2022-07-03T14:46:01;5.10;;;3.72;;
71312;SDS011;59104;44.738;20.612;2022-07-03T14:48:27;6.53;;;3.53;;
71312;SDS011;59104;44.738;20.612;2022-07-03T14:50:52;3.55;;;3.25;;
71312;SDS011;59104;44.738;20.612;2022-07-03T14:53:18;5.32;;;3.85;;
71312;SDS011;59104;44.738;20.612;2022-07-03T14:55:45;3.95;;;3.50;;
71312;SDS011;59104;44.738;20.612;2022-07-03T14:58:18;4.63;;;3.35;;
71312;SDS011;59104;44.738;20.612;2022-07-03T15:00:48;3.88;;;3.33;;
71312;SDS011;59104;44.738;20.612;2022-07-03T15:05:42;3.10;;;2.90;;
71312;SDS011;59104;44.738;20.612;2022-07-03T15:10:52;4.90;;;3.90;;
71312;SDS011;59104;44.738;20.612;2022-07-03T15:13:19;3.83;;;3.42;;
71312;SDS011;59104;44.738;20.612;2022-07-03T15:15:45;4.45;;;4.03;;
71312;SDS011;59104;44.738;20.612;2022-07-03T15:18:13;4.50;;;2.92;;
71312;SDS011;59104;44.738;20.612;2022-07-03T15:20:43;4.60;;;3.53;;
71312;SDS011;59104;44.738;20.612;2022-07-03T15:23:09;4.50;;;4.10;;
71312;SDS011;59104;44.738;20.612;2022-07-03T15:25:37;5.78;;;3.75;;
71312;SDS011;59104;44.738;20.612;2022-07-03T15:28:03;4.18;;;3.78;;
71312;SDS011;59104;44.738;20.612;2022-07-03T15:30:30;3.90;;;3.60;;
71312;SDS011;59104;44.738;20.612;2022-07-03T15:32:56;3.88;;;3.58;;
71312;SDS011;59104;44.738;20.612;2022-07-03T15:35:23;7.35;;;3.47;;
71312;SDS011;59104;44.738;20.612;2022-07-03T15:49:53;3.42;;;3.13;;
71312;SDS011;59104;44.738;20.612;2022-07-03T15:52:18;3.70;;;3.40;;
71312;SDS011;59104;44.738;20.612;2022-07-03T16:00:10;4.72;;;4.00;;
71312;SDS011;59104;44.738;20.612;2022-07-03T16:07:58;5.38;;;4.53;;
71312;SDS011;59104;44.738;20.612;2022-07-03T16:10:26;4.50;;;3.85;;
71312;SDS011;59104;44.738;20.612;2022-07-03T16:12:52;4.30;;;3.90;;
71312;SDS011;59104;44.738;20.612;2022-07-03T16:15:19;4.38;;;3.97;;
71312;SDS011;59104;44.738;20.612;2022-07-03T16:17:45;5.53;;;3.95;;
71312;SDS011;59104;44.738;20.612;2022-07-03T16:20:11;4.22;;;3.83;;
71312;SDS011;59104;44.738;20.612;2022-07-03T16:22:37;7.15;;;4.20;;
71312;SDS011;59104;44.738;20.612;2022-07-03T16:25:04;5.70;;;3.80;;
71312;SDS011;59104;44.738;20.612;2022-07-03T16:27:31;5.80;;;4.00;;
71312;SDS011;59104;44.738;20.612;2022-07-03T16:29:57;5.28;;;4.40;;
71312;SDS011;59104;44.738;20.612;2022-07-03T16:32:27;7.50;;;4.30;;
71312;SDS011;59104;44.738;20.612;2022-07-03T16:37:35;7.32;;;3.92;;
71312;SDS011;59104;44.738;20.612;2022-07-03T16:40:08;5.15;;;3.72;;
71312;SDS011;59104;44.738;20.612;2022-07-03T16:42:35;3.95;;;3.40;;